Aérodrome :
LOGIN :

S'inscrire | Disclaimer

   EN    FR    IT 

 










Légende :    VFR   VFR Marginal   IFR   IFR Intensif   IFR Très Intensif
Visi : 
Plafond : 
>= 8 km
>= 3000ft
5 à 8 km
1000 à 3000 ft
1500m à 5 km
500 à 1000 ft
800 à 1500m
200 à 500 ft
< 800m
< 200 ft
Symboles :   Orages  Brouillard  Fortes neiges  Fortes précipitations  Vent > 20 kt
SIGMETs :   Divers  Orages  Givrage  Turbulence  Onde Orograph.  Cendres Volcan.







- Altitude de l'aérodrome : 407 ft


EGDM - MoD Boscombe Down Amesbury

DERNIER METAR :
  • 231521Z 21014KT 9999 -DZ FEW005 BKN008 12/11 Q1013 GRN TEMPO 4000 GRN

METARs EXPIRÉS :
  • 231505Z 21015KT 3500 -DZ FEW005 BKN008 12/11 Q1013 YLO1 TEMPO 9999 NSW GRN
  • 231350Z 22016KT 9999 SCT012 12/10 Q1013 GRN TEMPO FEW012 BLU
  • 231250Z 23017KT 9999 FEW006 BKN012 12/10 Q1014 GRN BECMG FEW012 BKN016 WHT
  • 231217Z 22016KT 9999 SCT005 BKN012 BKN018 12/11 Q1014 YLO1 BECMG FEW005 BKN012 GRN

TAF AMD TAF EGDM
Valide du 23 à 15h jusqu'au 23 à 19h UTC


231509Z 2315/2319 22014KT 9999 SCT010 BKN025
PROB40
TEMPO 2315/2318 22015G25KT 3500 -RADZ BKN005
PROB40 2318/2319 FEW010
Pas de NOTAMs connus pour ce terrain.
1 SIGMET publié pour la FIR London (EGTT) :
 
Onde orographique forte
EGTT SIGMET 01 VALID 231130/231530 EGRR
EGTT LONDON FIR SEV MTW FCST WI N4914 W00600 - N5500 W00455 - N5500 E00030 - N4950 W00240 - N4914 W00600 SFC/FL150 STNR NC=



MET'MAP, la Météo Aéronautique d'un coup d'oeil ! - Copyright ORBIFLY Décembre 2007 - Disclaimer

ORBIFLY MET'MAP TEAM :

Programmation & Développement : Alexandra Zaïnal
Conception & Développement : Baudouin d'Aumeries
Co-Programmation & Développement : Marc-Olivier Méhu
Soutien technique & logistique : Manuel Goepfert

Contact : metmap@orbifly.com




SOURCES & CREDITS :

   NOAA